sensor_id;sensor_type;location;lat;lon;timestamp;P1;durP1;ratioP1;P2;durP2;ratioP2
46110;SDS011;31849;55.992;37.252;2023-08-12T00:01:22;15.02;;;13.35;;
46110;SDS011;31849;55.992;37.252;2023-08-12T00:06:26;21.63;;;14.60;;
46110;SDS011;31849;55.992;37.252;2023-08-12T00:16:35;16.83;;;13.98;;
46110;SDS011;31849;55.992;37.252;2023-08-12T00:21:39;20.48;;;14.75;;
46110;SDS011;31849;55.992;37.252;2023-08-12T00:26:42;23.02;;;15.73;;
46110;SDS011;31849;55.992;37.252;2023-08-12T00:31:47;22.13;;;15.77;;
46110;SDS011;31849;55.992;37.252;2023-08-12T00:36:51;23.88;;;15.27;;
46110;SDS011;31849;55.992;37.252;2023-08-12T00:41:55;22.02;;;14.27;;
46110;SDS011;31849;55.992;37.252;2023-08-12T00:47:00;22.38;;;14.88;;
46110;SDS011;31849;55.992;37.252;2023-08-12T00:52:04;19.15;;;15.23;;
46110;SDS011;31849;55.992;37.252;2023-08-12T00:57:08;19.20;;;15.57;;
46110;SDS011;31849;55.992;37.252;2023-08-12T01:12:22;17.55;;;13.77;;
46110;SDS011;31849;55.992;37.252;2023-08-12T01:17:33;18.55;;;15.13;;
46110;SDS011;31849;55.992;37.252;2023-08-12T01:22:39;17.92;;;15.32;;
46110;SDS011;31849;55.992;37.252;2023-08-12T01:27:45;19.33;;;15.68;;
46110;SDS011;31849;55.992;37.252;2023-08-12T01:32:50;20.90;;;16.52;;
46110;SDS011;31849;55.992;37.252;2023-08-12T01:37:58;23.42;;;18.20;;
46110;SDS011;31849;55.992;37.252;2023-08-12T01:43:07;23.95;;;18.33;;
46110;SDS011;31849;55.992;37.252;2023-08-12T01:48:11;19.65;;;17.55;;
46110;SDS011;31849;55.992;37.252;2023-08-12T01:53:14;21.00;;;16.88;;
46110;SDS011;31849;55.992;37.252;2023-08-12T01:58:19;19.55;;;16.58;;
46110;SDS011;31849;55.992;37.252;2023-08-12T02:03:23;23.45;;;16.92;;
46110;SDS011;31849;55.992;37.252;2023-08-12T02:08:26;21.25;;;16.58;;
46110;SDS011;31849;55.992;37.252;2023-08-12T02:13:31;21.65;;;16.85;;
46110;SDS011;31849;55.992;37.252;2023-08-12T02:18:35;22.42;;;17.23;;
46110;SDS011;31849;55.992;37.252;2023-08-12T02:23:39;19.33;;;15.90;;
46110;SDS011;31849;55.992;37.252;2023-08-12T02:28:44;19.98;;;16.40;;
46110;SDS011;31849;55.992;37.252;2023-08-12T02:33:47;20.67;;;16.83;;
46110;SDS011;31849;55.992;37.252;2023-08-12T02:38:52;17.80;;;15.90;;
46110;SDS011;31849;55.992;37.252;2023-08-12T02:43:57;18.48;;;16.25;;
46110;SDS011;31849;55.992;37.252;2023-08-12T02:49:00;18.02;;;16.10;;
46110;SDS011;31849;55.992;37.252;2023-08-12T02:54:04;17.10;;;15.30;;
46110;SDS011;31849;55.992;37.252;2023-08-12T02:59:09;17.25;;;15.32;;
46110;SDS011;31849;55.992;37.252;2023-08-12T03:04:13;17.63;;;15.50;;
46110;SDS011;31849;55.992;37.252;2023-08-12T03:09:16;17.80;;;14.90;;
46110;SDS011;31849;55.992;37.252;2023-08-12T03:14:23;18.38;;;14.52;;
46110;SDS011;31849;55.992;37.252;2023-08-12T03:19:26;18.27;;;14.82;;
46110;SDS011;31849;55.992;37.252;2023-08-12T03:24:30;19.48;;;15.65;;
46110;SDS011;31849;55.992;37.252;2023-08-12T03:29:35;18.88;;;16.08;;
46110;SDS011;31849;55.992;37.252;2023-08-12T03:34:38;20.80;;;15.10;;
46110;SDS011;31849;55.992;37.252;2023-08-12T03:39:42;18.75;;;15.18;;
46110;SDS011;31849;55.992;37.252;2023-08-12T03:44:47;15.20;;;13.40;;
46110;SDS011;31849;55.992;37.252;2023-08-12T03:49:50;15.60;;;13.60;;
46110;SDS011;31849;55.992;37.252;2023-08-12T03:54:54;17.25;;;13.45;;
46110;SDS011;31849;55.992;37.252;2023-08-12T03:59:59;14.05;;;12.55;;
46110;SDS011;31849;55.992;37.252;2023-08-12T04:05:05;17.13;;;12.70;;
46110;SDS011;31849;55.992;37.252;2023-08-12T04:10:09;16.52;;;12.40;;
46110;SDS011;31849;55.992;37.252;2023-08-12T04:15:14;14.80;;;12.80;;
46110;SDS011;31849;55.992;37.252;2023-08-12T04:20:18;13.90;;;12.50;;
46110;SDS011;31849;55.992;37.252;2023-08-12T04:25:24;12.52;;;11.25;;
46110;SDS011;31849;55.992;37.252;2023-08-12T04:30:29;13.85;;;12.13;;
46110;SDS011;31849;55.992;37.252;2023-08-12T04:35:33;15.25;;;12.95;;
46110;SDS011;31849;55.992;37.252;2023-08-12T04:40:38;16.70;;;12.07;;
46110;SDS011;31849;55.992;37.252;2023-08-12T04:45:45;14.32;;;12.10;;
46110;SDS011;31849;55.992;37.252;2023-08-12T04:50:49;13.93;;;12.52;;
46110;SDS011;31849;55.992;37.252;2023-08-12T04:55:53;14.75;;;12.85;;
46110;SDS011;31849;55.992;37.252;2023-08-12T05:01:00;14.30;;;12.80;;
46110;SDS011;31849;55.992;37.252;2023-08-12T05:06:04;15.07;;;13.40;;
46110;SDS011;31849;55.992;37.252;2023-08-12T05:11:08;16.85;;;14.15;;
46110;SDS011;31849;55.992;37.252;2023-08-12T05:16:13;16.30;;;13.45;;
46110;SDS011;31849;55.992;37.252;2023-08-12T05:21:17;17.42;;;14.75;;
46110;SDS011;31849;55.992;37.252;2023-08-12T05:26:20;17.70;;;14.30;;
46110;SDS011;31849;55.992;37.252;2023-08-12T05:31:25;16.30;;;13.90;;
46110;SDS011;31849;55.992;37.252;2023-08-12T05:36:29;18.08;;;13.32;;
46110;SDS011;31849;55.992;37.252;2023-08-12T05:41:33;15.38;;;13.65;;
46110;SDS011;31849;55.992;37.252;2023-08-12T05:46:38;21.85;;;12.13;;
46110;SDS011;31849;55.992;37.252;2023-08-12T05:51:41;17.30;;;12.35;;
46110;SDS011;31849;55.992;37.252;2023-08-12T05:56:45;15.48;;;12.20;;
46110;SDS011;31849;55.992;37.252;2023-08-12T06:01:50;15.52;;;11.52;;
46110;SDS011;31849;55.992;37.252;2023-08-12T06:06:54;15.10;;;12.60;;
46110;SDS011;31849;55.992;37.252;2023-08-12T06:11:57;16.33;;;12.20;;
46110;SDS011;31849;55.992;37.252;2023-08-12T06:17:02;13.00;;;11.68;;
46110;SDS011;31849;55.992;37.252;2023-08-12T06:22:06;15.20;;;11.90;;
46110;SDS011;31849;55.992;37.252;2023-08-12T06:27:09;15.35;;;11.65;;
46110;SDS011;31849;55.992;37.252;2023-08-12T06:32:14;15.73;;;11.82;;
46110;SDS011;31849;55.992;37.252;2023-08-12T06:37:18;14.43;;;10.85;;
46110;SDS011;31849;55.992;37.252;2023-08-12T06:42:21;12.70;;;10.63;;
46110;SDS011;31849;55.992;37.252;2023-08-12T06:47:26;13.43;;;10.80;;
46110;SDS011;31849;55.992;37.252;2023-08-12T06:52:31;16.27;;;9.93;;
46110;SDS011;31849;55.992;37.252;2023-08-12T06:57:35;11.40;;;9.10;;
46110;SDS011;31849;55.992;37.252;2023-08-12T07:02:40;11.18;;;8.70;;
46110;SDS011;31849;55.992;37.252;2023-08-12T07:07:44;12.77;;;8.40;;
46110;SDS011;31849;55.992;37.252;2023-08-12T07:12:48;12.95;;;8.07;;
46110;SDS011;31849;55.992;37.252;2023-08-12T07:17:53;9.38;;;7.97;;
46110;SDS011;31849;55.992;37.252;2023-08-12T07:22:57;12.52;;;9.27;;
46110;SDS011;31849;55.992;37.252;2023-08-12T07:33:05;9.73;;;8.13;;
46110;SDS011;31849;55.992;37.252;2023-08-12T07:38:09;14.75;;;8.70;;
46110;SDS011;31849;55.992;37.252;2023-08-12T07:43:13;10.10;;;8.40;;
46110;SDS011;31849;55.992;37.252;2023-08-12T07:48:18;10.98;;;8.50;;
46110;SDS011;31849;55.992;37.252;2023-08-12T07:53:22;10.70;;;8.60;;
46110;SDS011;31849;55.992;37.252;2023-08-12T08:03:30;10.83;;;8.77;;
46110;SDS011;31849;55.992;37.252;2023-08-12T08:08:34;12.35;;;8.60;;
46110;SDS011;31849;55.992;37.252;2023-08-12T08:18:42;13.52;;;9.38;;
46110;SDS011;31849;55.992;37.252;2023-08-12T08:23:46;13.57;;;8.75;;
46110;SDS011;31849;55.992;37.252;2023-08-12T08:28:49;13.77;;;9.15;;
46110;SDS011;31849;55.992;37.252;2023-08-12T08:33:54;12.68;;;9.40;;
46110;SDS011;31849;55.992;37.252;2023-08-12T08:38:58;13.98;;;9.80;;
46110;SDS011;31849;55.992;37.252;2023-08-12T08:44:02;14.35;;;10.05;;
46110;SDS011;31849;55.992;37.252;2023-08-12T08:49:07;18.00;;;11.27;;
46110;SDS011;31849;55.992;37.252;2023-08-12T08:54:12;15.35;;;11.60;;
46110;SDS011;31849;55.992;37.252;2023-08-12T08:59:17;14.20;;;11.10;;
46110;SDS011;31849;55.992;37.252;2023-08-12T09:04:22;12.35;;;10.80;;
46110;SDS011;31849;55.992;37.252;2023-08-12T09:09:26;15.50;;;11.02;;
46110;SDS011;31849;55.992;37.252;2023-08-12T09:14:30;12.68;;;10.40;;
46110;SDS011;31849;55.992;37.252;2023-08-12T09:19:36;15.98;;;11.32;;
46110;SDS011;31849;55.992;37.252;2023-08-12T09:24:40;13.82;;;11.02;;
46110;SDS011;31849;55.992;37.252;2023-08-12T09:29:45;14.93;;;11.30;;
46110;SDS011;31849;55.992;37.252;2023-08-12T09:34:50;16.48;;;12.43;;
46110;SDS011;31849;55.992;37.252;2023-08-12T09:39:55;15.07;;;12.57;;
46110;SDS011;31849;55.992;37.252;2023-08-12T09:44:59;17.08;;;12.07;;
46110;SDS011;31849;55.992;37.252;2023-08-12T09:50:07;14.63;;;12.35;;
46110;SDS011;31849;55.992;37.252;2023-08-12T09:55:11;15.32;;;11.20;;
46110;SDS011;31849;55.992;37.252;2023-08-12T10:00:20;16.65;;;12.70;;
46110;SDS011;31849;55.992;37.252;2023-08-12T10:05:26;13.63;;;12.23;;
46110;SDS011;31849;55.992;37.252;2023-08-12T10:10:32;15.23;;;11.93;;
46110;SDS011;31849;55.992;37.252;2023-08-12T10:15:37;14.75;;;11.98;;
46110;SDS011;31849;55.992;37.252;2023-08-12T10:25:46;16.20;;;11.73;;
46110;SDS011;31849;55.992;37.252;2023-08-12T10:30:52;16.20;;;11.65;;
46110;SDS011;31849;55.992;37.252;2023-08-12T10:35:57;15.35;;;13.00;;
46110;SDS011;31849;55.992;37.252;2023-08-12T10:41:14;16.45;;;12.98;;
46110;SDS011;31849;55.992;37.252;2023-08-12T10:46:22;16.63;;;13.10;;
46110;SDS011;31849;55.992;37.252;2023-08-12T10:51:45;15.40;;;12.93;;
46110;SDS011;31849;55.992;37.252;2023-08-12T10:57:08;14.80;;;13.30;;
46110;SDS011;31849;55.992;37.252;2023-08-12T11:02:16;18.25;;;13.10;;
46110;SDS011;31849;55.992;37.252;2023-08-12T11:07:22;16.20;;;13.43;;
46110;SDS011;31849;55.992;37.252;2023-08-12T11:12:33;15.82;;;12.70;;
46110;SDS011;31849;55.992;37.252;2023-08-12T11:17:38;14.68;;;12.20;;
46110;SDS011;31849;55.992;37.252;2023-08-12T11:22:44;16.60;;;12.88;;
46110;SDS011;31849;55.992;37.252;2023-08-12T11:27:48;15.38;;;13.60;;
46110;SDS011;31849;55.992;37.252;2023-08-12T11:32:54;15.23;;;12.95;;
46110;SDS011;31849;55.992;37.252;2023-08-12T11:37:59;15.63;;;13.82;;
46110;SDS011;31849;55.992;37.252;2023-08-12T11:43:03;16.00;;;14.27;;
46110;SDS011;31849;55.992;37.252;2023-08-12T11:48:09;18.90;;;14.18;;
46110;SDS011;31849;55.992;37.252;2023-08-12T11:58:18;17.65;;;15.00;;
46110;SDS011;31849;55.992;37.252;2023-08-12T12:03:22;19.75;;;17.48;;
46110;SDS011;31849;55.992;37.252;2023-08-12T12:08:32;19.40;;;16.42;;
46110;SDS011;31849;55.992;37.252;2023-08-12T12:13:35;17.85;;;15.52;;
46110;SDS011;31849;55.992;37.252;2023-08-12T12:18:39;17.90;;;16.00;;
46110;SDS011;31849;55.992;37.252;2023-08-12T12:23:44;21.13;;;16.35;;
46110;SDS011;31849;55.992;37.252;2023-08-12T12:28:48;19.20;;;15.60;;
46110;SDS011;31849;55.992;37.252;2023-08-12T12:33:51;17.60;;;15.52;;
46110;SDS011;31849;55.992;37.252;2023-08-12T12:38:56;21.20;;;16.73;;
46110;SDS011;31849;55.992;37.252;2023-08-12T12:44:00;18.92;;;15.63;;
46110;SDS011;31849;55.992;37.252;2023-08-12T12:49:04;17.70;;;14.35;;
46110;SDS011;31849;55.992;37.252;2023-08-12T12:54:09;16.50;;;13.23;;
46110;SDS011;31849;55.992;37.252;2023-08-12T12:59:13;15.38;;;13.73;;
46110;SDS011;31849;55.992;37.252;2023-08-12T13:04:17;16.95;;;13.30;;
46110;SDS011;31849;55.992;37.252;2023-08-12T13:09:22;16.42;;;13.45;;
46110;SDS011;31849;55.992;37.252;2023-08-12T13:14:26;17.58;;;14.23;;
46110;SDS011;31849;55.992;37.252;2023-08-12T13:19:32;15.43;;;13.30;;
46110;SDS011;31849;55.992;37.252;2023-08-12T13:24:37;18.77;;;13.43;;
46110;SDS011;31849;55.992;37.252;2023-08-12T13:29:41;15.18;;;13.27;;
46110;SDS011;31849;55.992;37.252;2023-08-12T13:34:44;15.35;;;12.70;;
46110;SDS011;31849;55.992;37.252;2023-08-12T13:39:50;15.52;;;13.18;;
46110;SDS011;31849;55.992;37.252;2023-08-12T13:44:54;17.45;;;13.23;;
46110;SDS011;31849;55.992;37.252;2023-08-12T13:50:01;16.67;;;13.10;;
46110;SDS011;31849;55.992;37.252;2023-08-12T13:55:07;15.00;;;13.05;;
46110;SDS011;31849;55.992;37.252;2023-08-12T14:00:12;16.83;;;13.07;;
46110;SDS011;31849;55.992;37.252;2023-08-12T14:05:16;15.45;;;12.65;;
46110;SDS011;31849;55.992;37.252;2023-08-12T14:10:21;15.23;;;12.70;;
46110;SDS011;31849;55.992;37.252;2023-08-12T14:15:25;18.25;;;12.27;;
46110;SDS011;31849;55.992;37.252;2023-08-12T14:20:29;14.35;;;11.63;;
46110;SDS011;31849;55.992;37.252;2023-08-12T14:30:37;12.00;;;10.75;;
46110;SDS011;31849;55.992;37.252;2023-08-12T14:35:41;13.60;;;11.98;;
46110;SDS011;31849;55.992;37.252;2023-08-12T14:40:47;14.10;;;12.52;;
46110;SDS011;31849;55.992;37.252;2023-08-12T14:45:51;16.25;;;14.57;;
46110;SDS011;31849;55.992;37.252;2023-08-12T14:50:55;15.35;;;12.77;;
46110;SDS011;31849;55.992;37.252;2023-08-12T14:56:00;15.48;;;13.18;;
46110;SDS011;31849;55.992;37.252;2023-08-12T15:01:03;16.58;;;13.60;;
46110;SDS011;31849;55.992;37.252;2023-08-12T15:06:08;17.77;;;13.90;;
46110;SDS011;31849;55.992;37.252;2023-08-12T15:11:13;18.13;;;14.07;;
46110;SDS011;31849;55.992;37.252;2023-08-12T15:16:17;16.75;;;13.93;;
46110;SDS011;31849;55.992;37.252;2023-08-12T15:21:21;15.43;;;12.52;;
46110;SDS011;31849;55.992;37.252;2023-08-12T15:26:26;15.95;;;13.52;;
46110;SDS011;31849;55.992;37.252;2023-08-12T15:31:33;14.48;;;12.95;;
46110;SDS011;31849;55.992;37.252;2023-08-12T15:36:36;15.00;;;11.90;;
46110;SDS011;31849;55.992;37.252;2023-08-12T15:41:44;13.85;;;11.88;;
46110;SDS011;31849;55.992;37.252;2023-08-12T15:46:47;12.23;;;10.68;;
46110;SDS011;31849;55.992;37.252;2023-08-12T15:51:51;17.92;;;10.90;;
46110;SDS011;31849;55.992;37.252;2023-08-12T15:56:56;12.20;;;10.73;;
46110;SDS011;31849;55.992;37.252;2023-08-12T16:01:59;13.73;;;10.90;;
46110;SDS011;31849;55.992;37.252;2023-08-12T16:07:03;12.68;;;11.35;;
46110;SDS011;31849;55.992;37.252;2023-08-12T16:12:08;14.80;;;11.55;;
46110;SDS011;31849;55.992;37.252;2023-08-12T16:17:12;16.00;;;11.55;;
46110;SDS011;31849;55.992;37.252;2023-08-12T16:22:16;14.20;;;11.30;;
46110;SDS011;31849;55.992;37.252;2023-08-12T16:27:21;15.88;;;11.05;;
46110;SDS011;31849;55.992;37.252;2023-08-12T16:32:25;13.68;;;11.00;;
46110;SDS011;31849;55.992;37.252;2023-08-12T16:37:28;13.18;;;11.32;;
46110;SDS011;31849;55.992;37.252;2023-08-12T16:42:33;15.63;;;11.10;;
46110;SDS011;31849;55.992;37.252;2023-08-12T16:47:37;12.75;;;11.25;;
46110;SDS011;31849;55.992;37.252;2023-08-12T16:52:40;12.25;;;10.60;;
46110;SDS011;31849;55.992;37.252;2023-08-12T16:57:45;14.57;;;11.20;;
46110;SDS011;31849;55.992;37.252;2023-08-12T17:02:49;16.15;;;10.25;;
46110;SDS011;31849;55.992;37.252;2023-08-12T17:07:53;17.08;;;11.18;;
46110;SDS011;31849;55.992;37.252;2023-08-12T17:12:58;14.95;;;11.38;;
46110;SDS011;31849;55.992;37.252;2023-08-12T17:18:02;14.63;;;10.88;;
46110;SDS011;31849;55.992;37.252;2023-08-12T17:23:05;13.70;;;11.05;;
46110;SDS011;31849;55.992;37.252;2023-08-12T17:28:11;13.68;;;10.88;;
46110;SDS011;31849;55.992;37.252;2023-08-12T17:33:14;13.15;;;11.25;;
46110;SDS011;31849;55.992;37.252;2023-08-12T17:38:18;14.40;;;11.35;;
46110;SDS011;31849;55.992;37.252;2023-08-12T17:43:23;14.85;;;11.25;;
46110;SDS011;31849;55.992;37.252;2023-08-12T17:48:27;13.85;;;11.23;;
46110;SDS011;31849;55.992;37.252;2023-08-12T17:53:30;13.88;;;11.23;;
46110;SDS011;31849;55.992;37.252;2023-08-12T18:08:42;16.67;;;11.95;;
46110;SDS011;31849;55.992;37.252;2023-08-12T18:13:47;17.02;;;12.38;;
46110;SDS011;31849;55.992;37.252;2023-08-12T18:18:51;18.45;;;13.23;;
46110;SDS011;31849;55.992;37.252;2023-08-12T18:23:55;18.90;;;13.63;;
46110;SDS011;31849;55.992;37.252;2023-08-12T18:29:00;20.00;;;13.25;;
46110;SDS011;31849;55.992;37.252;2023-08-12T18:34:04;18.40;;;14.10;;
46110;SDS011;31849;55.992;37.252;2023-08-12T18:39:08;17.52;;;14.32;;
46110;SDS011;31849;55.992;37.252;2023-08-12T18:44:13;17.95;;;13.90;;
46110;SDS011;31849;55.992;37.252;2023-08-12T18:49:16;16.85;;;14.30;;
46110;SDS011;31849;55.992;37.252;2023-08-12T18:54:20;19.27;;;13.32;;
46110;SDS011;31849;55.992;37.252;2023-08-12T18:59:25;21.40;;;14.05;;
46110;SDS011;31849;55.992;37.252;2023-08-12T19:04:30;21.45;;;14.05;;
46110;SDS011;31849;55.992;37.252;2023-08-12T19:09:34;16.48;;;14.43;;
46110;SDS011;31849;55.992;37.252;2023-08-12T19:14:39;18.10;;;13.98;;
46110;SDS011;31849;55.992;37.252;2023-08-12T19:19:43;17.67;;;13.98;;
46110;SDS011;31849;55.992;37.252;2023-08-12T19:24:47;19.60;;;15.32;;
46110;SDS011;31849;55.992;37.252;2023-08-12T19:29:52;17.85;;;14.25;;
46110;SDS011;31849;55.992;37.252;2023-08-12T19:34:55;22.17;;;15.57;;
46110;SDS011;31849;55.992;37.252;2023-08-12T19:39:59;19.00;;;15.60;;
46110;SDS011;31849;55.992;37.252;2023-08-12T19:45:06;18.15;;;15.95;;
46110;SDS011;31849;55.992;37.252;2023-08-12T19:50:11;21.20;;;15.75;;
46110;SDS011;31849;55.992;37.252;2023-08-12T19:55:15;20.00;;;15.75;;
46110;SDS011;31849;55.992;37.252;2023-08-12T20:00:21;21.17;;;16.58;;
46110;SDS011;31849;55.992;37.252;2023-08-12T20:05:25;22.10;;;16.70;;
46110;SDS011;31849;55.992;37.252;2023-08-12T20:10:31;21.73;;;16.42;;
46110;SDS011;31849;55.992;37.252;2023-08-12T20:15:36;24.02;;;16.73;;
46110;SDS011;31849;55.992;37.252;2023-08-12T20:20:40;19.17;;;15.73;;
46110;SDS011;31849;55.992;37.252;2023-08-12T20:25:49;18.65;;;16.08;;
46110;SDS011;31849;55.992;37.252;2023-08-12T20:30:54;21.10;;;15.60;;
46110;SDS011;31849;55.992;37.252;2023-08-12T20:35:57;24.75;;;15.32;;
46110;SDS011;31849;55.992;37.252;2023-08-12T20:41:01;18.95;;;15.23;;
46110;SDS011;31849;55.992;37.252;2023-08-12T20:46:06;20.70;;;15.18;;
46110;SDS011;31849;55.992;37.252;2023-08-12T20:51:10;18.13;;;14.95;;
46110;SDS011;31849;55.992;37.252;2023-08-12T20:56:14;19.75;;;14.27;;
46110;SDS011;31849;55.992;37.252;2023-08-12T21:01:19;21.63;;;15.27;;
46110;SDS011;31849;55.992;37.252;2023-08-12T21:06:22;18.00;;;14.45;;
46110;SDS011;31849;55.992;37.252;2023-08-12T21:11:26;17.83;;;14.73;;
46110;SDS011;31849;55.992;37.252;2023-08-12T21:16:31;24.05;;;15.27;;
46110;SDS011;31849;55.992;37.252;2023-08-12T21:21:35;23.38;;;15.00;;
46110;SDS011;31849;55.992;37.252;2023-08-12T21:26:38;21.02;;;15.65;;
46110;SDS011;31849;55.992;37.252;2023-08-12T21:31:43;21.58;;;16.23;;
46110;SDS011;31849;55.992;37.252;2023-08-12T21:36:47;21.20;;;15.82;;
46110;SDS011;31849;55.992;37.252;2023-08-12T21:41:51;23.80;;;16.10;;
46110;SDS011;31849;55.992;37.252;2023-08-12T21:46:56;22.83;;;15.55;;
46110;SDS011;31849;55.992;37.252;2023-08-12T21:51:59;18.20;;;14.82;;
46110;SDS011;31849;55.992;37.252;2023-08-12T21:57:03;21.45;;;15.15;;
46110;SDS011;31849;55.992;37.252;2023-08-12T22:02:08;19.52;;;14.95;;
46110;SDS011;31849;55.992;37.252;2023-08-12T22:07:11;19.98;;;15.07;;
46110;SDS011;31849;55.992;37.252;2023-08-12T22:12:15;22.85;;;14.93;;
46110;SDS011;31849;55.992;37.252;2023-08-12T22:17:21;17.05;;;14.75;;
46110;SDS011;31849;55.992;37.252;2023-08-12T22:22:26;22.85;;;14.80;;
46110;SDS011;31849;55.992;37.252;2023-08-12T22:27:29;17.40;;;14.85;;
46110;SDS011;31849;55.992;37.252;2023-08-12T22:32:35;19.00;;;14.20;;
46110;SDS011;31849;55.992;37.252;2023-08-12T22:37:38;18.90;;;14.60;;
46110;SDS011;31849;55.992;37.252;2023-08-12T22:42:42;21.20;;;14.63;;
46110;SDS011;31849;55.992;37.252;2023-08-12T22:47:47;18.38;;;14.88;;
46110;SDS011;31849;55.992;37.252;2023-08-12T22:52:51;22.10;;;14.75;;
46110;SDS011;31849;55.992;37.252;2023-08-12T22:57:55;21.27;;;14.15;;
46110;SDS011;31849;55.992;37.252;2023-08-12T23:03:00;19.35;;;14.00;;
46110;SDS011;31849;55.992;37.252;2023-08-12T23:08:03;21.98;;;14.20;;
46110;SDS011;31849;55.992;37.252;2023-08-12T23:18:13;18.57;;;14.40;;
46110;SDS011;31849;55.992;37.252;2023-08-12T23:23:16;21.75;;;14.70;;
46110;SDS011;31849;55.992;37.252;2023-08-12T23:28:20;17.92;;;14.05;;
46110;SDS011;31849;55.992;37.252;2023-08-12T23:33:25;18.23;;;14.93;;
46110;SDS011;31849;55.992;37.252;2023-08-12T23:38:28;19.50;;;14.38;;
46110;SDS011;31849;55.992;37.252;2023-08-12T23:43:32;20.83;;;14.18;;
46110;SDS011;31849;55.992;37.252;2023-08-12T23:48:37;16.35;;;14.23;;
46110;SDS011;31849;55.992;37.252;2023-08-12T23:53:40;18.00;;;14.27;;
46110;SDS011;31849;55.992;37.252;2023-08-12T23:58:44;16.90;;;14.48;;
